createdAt,value
2023-03-17T00:01:16.229Z,76.69
2023-03-17T00:03:46.229Z,76.87
2023-03-17T00:06:17.523Z,75.69
2023-03-17T00:08:46.265Z,75.51
2023-03-17T00:11:15.938Z,76.54
2023-03-17T00:13:44.553Z,76.80
2023-03-17T00:16:17.639Z,75.55
2023-03-17T00:18:45.764Z,75.38
2023-03-17T00:21:14.841Z,76.16
2023-03-17T00:23:44.940Z,76.10
2023-03-17T00:26:13.144Z,75.95
2023-03-17T00:28:40.998Z,76.41
2023-03-17T00:31:15.190Z,75.51
2023-03-17T00:33:45.423Z,75.54
2023-03-17T00:36:16.559Z,75.47
2023-03-17T00:38:44.495Z,74.44
2023-03-17T00:41:12.307Z,75.09
2023-03-17T00:43:39.824Z,75.46
2023-03-17T00:46:14.567Z,75.55
2023-03-17T00:48:44.378Z,74.13
2023-03-17T00:51:11.860Z,73.70
2023-03-17T00:53:40.621Z,74.45
2023-03-17T00:56:14.306Z,74.13
2023-03-17T00:58:42.464Z,74.42
2023-03-17T01:01:10.644Z,74.01
2023-03-17T01:03:39.678Z,72.68
2023-03-17T01:06:12.349Z,74.27
2023-03-17T01:08:41.478Z,74.19
2023-03-17T01:11:15.987Z,72.71
2023-03-17T01:13:43.454Z,74.62
2023-03-17T01:16:12.298Z,72.96
2023-03-17T01:18:40.830Z,73.37
2023-03-17T01:21:10.011Z,73.56
2023-03-17T01:23:37.893Z,73.73
2023-03-17T01:26:06.455Z,73.94
2023-03-17T01:28:34.609Z,73.60
2023-03-17T01:31:02.661Z,73.63
2023-03-17T01:33:30.231Z,74.58
2023-03-17T01:35:57.836Z,73.67
2023-03-17T01:38:26.644Z,73.42
2023-03-17T01:40:54.764Z,73.65
2023-03-17T01:43:23.772Z,72.53
2023-03-17T01:46:25.083Z,72.39
2023-03-17T01:49:04.359Z,73.21
2023-03-17T01:51:34.564Z,72.91
2023-03-17T01:54:08.229Z,72.26
2023-03-17T01:56:37.853Z,72.95
2023-03-17T01:59:10.233Z,72.60
2023-03-17T02:01:42.033Z,72.57
2023-03-17T02:04:09.672Z,71.65
2023-03-17T02:06:44.693Z,73.57
2023-03-17T02:09:24.316Z,72.18
2023-03-17T02:11:51.763Z,72.08
2023-03-17T02:14:20.413Z,73.36
2023-03-17T02:16:48.395Z,73.68
2023-03-17T02:19:15.894Z,73.53
2023-03-17T02:21:46.105Z,72.23
2023-03-17T02:24:20.245Z,73.47
2023-03-17T02:26:50.108Z,73.03
2023-03-17T02:29:17.725Z,74.00
2023-03-17T02:31:45.805Z,72.41
2023-03-17T02:34:13.303Z,73.81
2023-03-17T02:36:40.836Z,73.23
2023-03-17T02:39:09.701Z,72.71
2023-03-17T02:41:37.221Z,73.83
2023-03-17T02:44:04.960Z,72.95
2023-03-17T02:46:32.599Z,73.03
2023-03-17T02:49:01.510Z,74.06
2023-03-17T02:51:29.049Z,73.00
2023-03-17T02:53:56.623Z,73.86
2023-03-17T02:56:25.538Z,73.11
2023-03-17T02:58:53.342Z,73.00
2023-03-17T03:01:21.155Z,73.62
2023-03-17T03:03:48.966Z,72.80
2023-03-17T03:06:16.778Z,72.64
2023-03-17T03:08:44.276Z,73.21
2023-03-17T03:11:12.016Z,72.67
2023-03-17T03:13:41.323Z,73.35
2023-03-17T03:16:09.234Z,73.61
2023-03-17T03:18:37.666Z,72.32
2023-03-17T03:21:06.580Z,74.24
2023-03-17T03:23:34.087Z,73.91
2023-03-17T03:26:02.237Z,73.19
2023-03-17T03:28:29.716Z,72.07
2023-03-17T03:30:58.516Z,73.83
2023-03-17T03:33:26.694Z,72.75
2023-03-17T03:35:54.315Z,72.00
2023-03-17T03:38:21.816Z,72.83
2023-03-17T03:40:49.299Z,73.55
2023-03-17T03:43:23.350Z,72.65
2023-03-17T03:45:51.877Z,72.02
2023-03-17T03:48:21.612Z,71.53
2023-03-17T03:50:49.133Z,72.18
2023-03-17T03:53:16.971Z,73.30
2023-03-17T03:55:44.434Z,73.05
2023-03-17T03:58:11.872Z,72.57
2023-03-17T04:00:39.318Z,72.37
2023-03-17T04:03:07.422Z,72.18
2023-03-17T04:05:36.324Z,72.63
2023-03-17T04:08:04.033Z,72.29
2023-03-17T04:10:31.888Z,73.99
2023-03-17T04:12:59.562Z,72.99
2023-03-17T04:15:27.088Z,73.57
2023-03-17T04:17:55.510Z,72.15
2023-03-17T04:20:23.334Z,72.90
2023-03-17T04:22:52.313Z,72.82
2023-03-17T04:25:19.934Z,72.44
2023-03-17T04:27:47.419Z,72.15
2023-03-17T04:30:16.700Z,72.51
2023-03-17T04:32:45.272Z,72.26
2023-03-17T04:35:15.220Z,72.82
2023-03-17T04:37:42.980Z,73.72
2023-03-17T04:40:14.186Z,72.48
2023-03-17T04:42:42.293Z,72.88
2023-03-17T04:45:13.941Z,73.60
2023-03-17T04:47:42.002Z,71.89
2023-03-17T04:50:11.533Z,73.69
2023-03-17T04:52:39.367Z,72.33
2023-03-17T04:55:09.124Z,73.12
2023-03-17T04:57:38.434Z,72.87
2023-03-17T05:00:08.171Z,72.49
2023-03-17T05:02:35.767Z,73.34
2023-03-17T05:05:03.305Z,73.56
2023-03-17T05:07:33.888Z,73.72
2023-03-17T05:10:02.015Z,74.13
2023-03-17T05:12:29.504Z,73.28
2023-03-17T05:14:58.474Z,73.73
2023-03-17T05:17:25.971Z,73.09
2023-03-17T05:19:53.511Z,71.69
2023-03-17T05:22:21.032Z,73.61
2023-03-17T05:24:48.635Z,73.33
2023-03-17T05:27:16.509Z,73.28
2023-03-17T05:29:44.005Z,72.36
2023-03-17T05:32:13.525Z,73.53
2023-03-17T05:34:40.997Z,73.97
2023-03-17T05:37:08.601Z,73.12
2023-03-17T05:39:36.257Z,73.88
2023-03-17T05:42:03.909Z,72.76
2023-03-17T05:44:31.477Z,73.46
2023-03-17T05:46:59.627Z,71.79
2023-03-17T05:49:28.755Z,74.18
2023-03-17T05:51:56.259Z,73.05
2023-03-17T05:54:24.047Z,73.59
2023-03-17T05:56:51.541Z,72.81
2023-03-17T05:59:19.030Z,72.92
2023-03-17T06:01:46.517Z,73.22
2023-03-17T06:04:14.037Z,73.48
2023-03-17T06:06:42.926Z,72.77
2023-03-17T06:09:10.639Z,74.17
2023-03-17T06:11:38.110Z,72.53
2023-03-17T06:14:05.978Z,73.00
2023-03-17T06:16:33.539Z,73.07
2023-03-17T06:19:01.353Z,71.63
2023-03-17T06:21:29.353Z,73.07
2023-03-17T06:23:58.274Z,72.43
2023-03-17T06:26:26.100Z,72.08
2023-03-17T06:28:53.666Z,71.29
2023-03-17T06:31:22.185Z,71.68
2023-03-17T06:33:49.655Z,71.73
2023-03-17T06:36:17.869Z,71.68
2023-03-17T06:38:45.988Z,71.83
2023-03-17T06:41:14.787Z,70.97
2023-03-17T06:43:42.714Z,72.00
2023-03-17T06:46:10.437Z,72.45
2023-03-17T06:48:38.176Z,72.18
2023-03-17T06:51:06.202Z,71.59
2023-03-17T06:53:33.664Z,72.78
2023-03-17T06:56:01.097Z,72.20
2023-03-17T06:58:30.483Z,72.88
2023-03-17T07:00:58.605Z,71.29
2023-03-17T07:03:26.510Z,73.04
2023-03-17T07:05:54.658Z,73.42
2023-03-17T07:08:22.141Z,71.98
2023-03-17T07:10:49.935Z,73.10
2023-03-17T07:13:17.360Z,72.03
2023-03-17T07:15:47.123Z,70.61
2023-03-17T07:18:14.606Z,71.25
2023-03-17T07:20:42.667Z,71.64
2023-03-17T07:23:12.093Z,69.36
2023-03-17T07:25:43.446Z,70.49
2023-03-17T07:28:10.906Z,70.15
2023-03-17T07:30:38.326Z,70.37
2023-03-17T07:33:07.484Z,70.66
2023-03-17T07:35:35.119Z,70.55
2023-03-17T07:38:02.889Z,69.79
2023-03-17T07:40:30.694Z,68.93
2023-03-17T07:42:58.598Z,70.45
2023-03-17T07:45:26.106Z,70.21
2023-03-17T07:47:53.892Z,69.20
2023-03-17T07:50:23.156Z,69.04
2023-03-17T07:52:50.629Z,69.87
2023-03-17T07:55:18.256Z,68.57
2023-03-17T07:57:46.152Z,68.05
2023-03-17T08:00:14.974Z,66.22
2023-03-17T08:02:42.535Z,67.37
2023-03-17T08:05:11.379Z,68.46
2023-03-17T08:07:40.397Z,68.31
2023-03-17T08:10:08.392Z,69.41
2023-03-17T08:12:36.421Z,68.12
2023-03-17T08:15:04.210Z,68.11
2023-03-17T08:17:31.744Z,68.15
2023-03-17T08:19:59.463Z,67.74
2023-03-17T08:22:27.663Z,67.68
2023-03-17T08:24:56.547Z,68.14
2023-03-17T08:27:24.037Z,66.77
2023-03-17T08:29:51.892Z,65.93
2023-03-17T08:32:19.562Z,66.39
2023-03-17T08:34:48.359Z,65.79
2023-03-17T08:37:15.870Z,65.88
2023-03-17T08:39:43.347Z,65.59
2023-03-17T08:42:12.771Z,65.06
2023-03-17T08:44:42.264Z,65.28
2023-03-17T08:47:11.503Z,63.68
2023-03-17T08:49:38.942Z,65.01
2023-03-17T08:52:06.602Z,65.54
2023-03-17T08:54:35.695Z,63.97
2023-03-17T08:57:03.931Z,66.06
2023-03-17T08:59:32.878Z,63.71
2023-03-17T09:02:00.498Z,62.85
2023-03-17T09:04:28.675Z,62.14
2023-03-17T09:07:03.271Z,64.61
2023-03-17T09:09:32.063Z,60.98
2023-03-17T09:11:59.683Z,62.29
2023-03-17T09:14:27.499Z,62.11
2023-03-17T09:16:56.764Z,62.36
2023-03-17T09:19:24.738Z,61.17
2023-03-17T09:21:52.671Z,61.04
2023-03-17T09:24:21.162Z,61.01
2023-03-17T09:26:48.612Z,60.32
2023-03-17T09:29:16.351Z,60.51
2023-03-17T09:31:43.975Z,59.66
2023-03-17T09:34:12.799Z,60.67
2023-03-17T09:36:40.246Z,62.49
2023-03-17T09:39:08.700Z,62.66
2023-03-17T09:42:02.530Z,59.71
2023-03-17T09:44:45.904Z,56.26
2023-03-17T09:47:37.056Z,60.45
2023-03-17T09:50:11.796Z,59.32
2023-03-17T09:52:39.461Z,62.01
2023-03-17T09:55:09.256Z,62.11
2023-03-17T09:57:38.805Z,59.63
2023-03-17T10:00:14.481Z,56.68
2023-03-17T10:02:43.318Z,57.94
2023-03-17T10:05:19.460Z,56.04
2023-03-17T10:07:55.325Z,55.61
2023-03-17T10:10:30.783Z,54.33
2023-03-17T10:13:08.304Z,56.79
2023-03-17T10:15:41.960Z,54.62
2023-03-17T10:18:12.526Z,53.63
2023-03-17T10:20:51.502Z,59.48
2023-03-17T10:23:24.790Z,57.03
2023-03-17T10:25:53.712Z,57.21
2023-03-17T10:28:28.737Z,57.66
2023-03-17T10:31:02.808Z,55.21
2023-03-17T10:33:30.944Z,53.05
2023-03-17T10:36:08.927Z,52.67
2023-03-17T10:38:36.824Z,53.57
2023-03-17T10:41:09.762Z,50.98
2023-03-17T10:43:44.533Z,52.87
2023-03-17T10:46:19.375Z,53.58
2023-03-17T10:48:51.108Z,53.51
2023-03-17T10:51:23.174Z,53.63
2023-03-17T10:53:54.223Z,54.66
2023-03-17T10:56:27.213Z,53.97
2023-03-17T10:58:56.794Z,53.46
2023-03-17T11:01:30.190Z,53.46
2023-03-17T11:04:00.269Z,53.46
2023-03-17T11:06:39.300Z,50.34
2023-03-17T11:09:10.965Z,49.88
2023-03-17T11:11:44.922Z,51.15
2023-03-17T11:14:14.270Z,53.65
2023-03-17T11:16:53.244Z,51.76
2023-03-17T11:19:27.050Z,52.87
2023-03-17T11:22:04.854Z,51.28
2023-03-17T11:24:33.977Z,49.74
2023-03-17T11:27:08.985Z,51.51
2023-03-17T11:29:49.825Z,49.46
2023-03-17T11:32:28.146Z,52.11
2023-03-17T11:35:14.647Z,51.15
2023-03-17T11:38:00.784Z,52.17
2023-03-17T11:40:33.267Z,50.26
2023-03-17T11:43:15.564Z,50.95
2023-03-17T11:45:48.763Z,48.70
2023-03-17T11:48:28.053Z,49.28
2023-03-17T11:51:00.686Z,51.74
2023-03-17T11:53:45.503Z,49.43
2023-03-17T11:56:18.928Z,46.64
2023-03-17T11:58:50.531Z,51.45
2023-03-17T12:01:22.584Z,47.13
2023-03-17T12:03:55.497Z,47.69
2023-03-17T12:06:29.066Z,51.39
2023-03-17T12:09:01.307Z,49.15
2023-03-17T12:11:31.591Z,49.23
2023-03-17T12:14:03.710Z,47.36
2023-03-17T12:16:37.128Z,45.93
2023-03-17T12:19:11.363Z,49.43
2023-03-17T12:21:45.498Z,51.17
2023-03-17T12:24:19.987Z,49.17
2023-03-17T12:26:55.469Z,49.71
2023-03-17T12:29:29.407Z,45.35
2023-03-17T12:32:02.560Z,47.06
2023-03-17T12:34:37.968Z,44.94
2023-03-17T12:37:05.696Z,44.45
2023-03-17T12:39:36.063Z,49.27
2023-03-17T12:42:25.165Z,49.69
2023-03-17T12:45:10.381Z,49.03
2023-03-17T12:48:03.996Z,47.95
2023-03-17T12:50:49.936Z,46.91
2023-03-17T12:53:30.284Z,46.34
2023-03-17T12:56:04.157Z,44.25
2023-03-17T12:58:36.364Z,44.27
2023-03-17T13:01:12.824Z,44.22
2023-03-17T13:03:56.931Z,43.84
2023-03-17T13:06:25.539Z,42.79
2023-03-17T13:08:54.207Z,45.71
2023-03-17T13:11:29.537Z,43.36
2023-03-17T13:14:15.347Z,45.52
2023-03-17T13:16:46.766Z,44.32
2023-03-17T13:19:18.567Z,44.41
2023-03-17T13:21:49.863Z,43.57
2023-03-17T13:24:24.086Z,42.96
2023-03-17T13:26:58.166Z,45.97
2023-03-17T13:29:39.302Z,44.65
2023-03-17T13:32:35.544Z,45.75
2023-03-17T13:35:40.655Z,46.27
2023-03-17T13:38:45.452Z,44.87
2023-03-17T13:41:35.856Z,45.79
2023-03-17T13:44:16.578Z,47.04
2023-03-17T13:46:46.551Z,44.58
2023-03-17T13:49:25.447Z,46.16
2023-03-17T13:51:59.835Z,47.66
2023-03-17T13:54:33.792Z,44.99
2023-03-17T13:57:24.473Z,45.87
2023-03-17T14:00:01.451Z,44.86
2023-03-17T14:02:31.976Z,46.41
2023-03-17T14:05:02.400Z,48.04
2023-03-17T14:07:40.354Z,50.63
2023-03-17T14:10:10.696Z,46.85
2023-03-17T14:12:44.867Z,46.69
2023-03-17T14:15:22.575Z,43.66
2023-03-17T14:17:54.935Z,45.31
2023-03-17T14:20:24.701Z,47.81
2023-03-17T14:22:56.076Z,45.94
2023-03-17T14:25:25.299Z,46.75
2023-03-17T14:27:54.572Z,48.74
2023-03-17T14:30:25.617Z,45.60
2023-03-17T14:33:00.763Z,46.54
2023-03-17T14:35:31.238Z,48.29
2023-03-17T14:37:59.247Z,48.01
2023-03-17T14:40:29.047Z,49.33
2023-03-17T14:42:57.303Z,47.97
2023-03-17T14:45:32.585Z,46.19
2023-03-17T14:48:02.856Z,46.42
2023-03-17T14:50:32.755Z,46.02
2023-03-17T14:53:01.583Z,46.43
2023-03-17T14:55:38.034Z,48.25
2023-03-17T14:58:10.741Z,48.62
2023-03-17T15:00:45.418Z,48.29
2023-03-17T15:03:21.699Z,48.40
2023-03-17T15:05:50.356Z,46.68
2023-03-17T15:08:40.856Z,44.89
2023-03-17T15:11:09.226Z,47.63
2023-03-17T15:13:39.126Z,45.95
2023-03-17T15:16:21.914Z,46.51
2023-03-17T15:18:54.556Z,46.58
2023-03-17T15:21:28.626Z,46.95
2023-03-17T15:23:56.336Z,47.03
2023-03-17T15:26:31.123Z,45.85
2023-03-17T15:29:00.342Z,47.85
2023-03-17T15:31:30.554Z,47.90
2023-03-17T15:33:58.877Z,47.80
2023-03-17T15:36:32.760Z,45.78
2023-03-17T15:39:01.010Z,46.61
2023-03-17T15:41:28.641Z,47.30
2023-03-17T15:43:56.671Z,46.58
2023-03-17T15:46:27.256Z,48.22
2023-03-17T15:48:56.473Z,47.81
2023-03-17T15:51:23.962Z,47.20
2023-03-17T15:53:51.541Z,48.40
2023-03-17T15:56:21.025Z,47.83
2023-03-17T15:58:51.424Z,47.67
2023-03-17T16:01:19.892Z,47.00
2023-03-17T16:03:47.890Z,46.51
2023-03-17T16:06:19.535Z,48.01
2023-03-17T16:08:47.083Z,47.33
2023-03-17T16:11:19.167Z,49.18
2023-03-17T16:13:47.545Z,48.97
2023-03-17T16:16:22.535Z,48.83
2023-03-17T16:18:52.441Z,49.07
2023-03-17T16:21:21.561Z,48.74
2023-03-17T16:23:50.136Z,48.96
2023-03-17T16:26:17.681Z,49.47
2023-03-17T16:28:47.495Z,47.37
2023-03-17T16:31:21.602Z,47.39
2023-03-17T16:33:50.126Z,48.52
2023-03-17T16:36:18.416Z,50.85
2023-03-17T16:38:48.124Z,49.50
2023-03-17T16:41:20.275Z,50.58
2023-03-17T16:43:52.057Z,51.79
2023-03-17T16:46:21.159Z,51.38
2023-03-17T16:48:50.052Z,52.47
2023-03-17T16:51:18.253Z,52.84
2023-03-17T16:53:47.682Z,53.97
2023-03-17T16:56:18.625Z,51.75
2023-03-17T16:58:46.825Z,52.51
2023-03-17T17:01:17.467Z,54.18
2023-03-17T17:03:45.944Z,54.87
2023-03-17T17:06:14.193Z,55.30
2023-03-17T17:08:42.950Z,56.00
2023-03-17T17:11:13.772Z,56.42
2023-03-17T17:13:41.575Z,58.22
2023-03-17T17:16:18.413Z,58.44
2023-03-17T17:18:47.198Z,59.12
2023-03-17T17:21:14.903Z,59.59
2023-03-17T17:23:42.528Z,59.33
2023-03-17T17:26:11.690Z,60.45
2023-03-17T17:28:40.294Z,61.35
2023-03-17T17:31:07.757Z,61.72
2023-03-17T17:33:35.904Z,60.39
2023-03-17T17:36:04.116Z,61.73
2023-03-17T17:38:32.146Z,62.15
2023-03-17T17:41:03.041Z,62.92
2023-03-17T17:43:32.171Z,62.61
2023-03-17T17:45:59.688Z,63.54
2023-03-17T17:48:28.728Z,62.65
2023-03-17T17:50:57.630Z,63.50
2023-03-17T17:53:25.175Z,63.41
2023-03-17T17:55:52.957Z,63.44
2023-03-17T17:58:23.488Z,63.19
2023-03-17T18:00:55.001Z,64.59
2023-03-17T18:03:25.065Z,64.48
2023-03-17T18:05:53.179Z,65.45
2023-03-17T18:08:21.035Z,65.55
2023-03-17T18:10:51.448Z,65.35
2023-03-17T18:13:19.404Z,65.77
2023-03-17T18:15:46.883Z,64.86
2023-03-17T18:18:15.713Z,66.01
2023-03-17T18:20:43.188Z,66.03
2023-03-17T18:23:11.090Z,66.39
2023-03-17T18:25:38.653Z,66.25
2023-03-17T18:28:06.230Z,66.85
2023-03-17T18:30:34.967Z,68.09
2023-03-17T18:33:07.337Z,67.31
2023-03-17T18:35:36.530Z,67.32
2023-03-17T18:38:04.148Z,68.25
2023-03-17T18:40:31.619Z,67.11
2023-03-17T18:42:59.118Z,65.28
2023-03-17T18:45:26.995Z,65.95
2023-03-17T18:47:54.667Z,66.03
2023-03-17T18:50:22.564Z,65.30
2023-03-17T18:52:51.647Z,64.62
2023-03-17T18:55:19.338Z,65.08
2023-03-17T18:57:48.011Z,65.46
2023-03-17T19:00:18.504Z,66.08
2023-03-17T19:02:46.761Z,65.23
2023-03-17T19:05:15.211Z,65.34
2023-03-17T19:07:42.820Z,66.82
2023-03-17T19:10:13.890Z,67.62
2023-03-17T19:12:42.327Z,67.05
2023-03-17T19:15:12.438Z,66.99
2023-03-17T19:17:40.380Z,67.58
2023-03-17T19:20:09.961Z,67.50
2023-03-17T19:22:37.623Z,68.66
2023-03-17T19:25:06.193Z,69.44
2023-03-17T19:27:35.277Z,68.33
2023-03-17T19:30:02.822Z,70.13
2023-03-17T19:32:30.305Z,69.76
2023-03-17T19:34:57.823Z,69.21
2023-03-17T19:37:25.872Z,69.82
2023-03-17T19:39:53.364Z,70.54
2023-03-17T19:42:21.016Z,71.09
2023-03-17T19:44:49.873Z,70.59
2023-03-17T19:47:17.379Z,70.68
2023-03-17T19:49:44.878Z,70.15
2023-03-17T19:52:12.348Z,69.47
2023-03-17T19:54:43.504Z,69.36
2023-03-17T19:57:11.280Z,69.56
2023-03-17T19:59:38.768Z,69.15
2023-03-17T20:02:07.759Z,70.46
2023-03-17T20:04:36.547Z,69.96
2023-03-17T20:07:04.099Z,70.33
2023-03-17T20:09:31.777Z,70.39
2023-03-17T20:11:59.805Z,70.59
2023-03-17T20:14:27.292Z,69.09
2023-03-17T20:16:55.093Z,70.35
2023-03-17T20:19:23.913Z,70.55
2023-03-17T20:21:51.389Z,70.25
2023-03-17T20:24:19.066Z,70.26
2023-03-17T20:26:49.330Z,71.55
2023-03-17T20:29:17.408Z,71.94
2023-03-17T20:31:44.897Z,71.43
2023-03-17T20:34:12.684Z,70.81
2023-03-17T20:36:42.859Z,70.23
2023-03-17T20:39:14.630Z,70.43
2023-03-17T20:41:42.224Z,70.59
2023-03-17T20:44:09.823Z,71.85
2023-03-17T20:46:37.318Z,72.73
2023-03-17T20:49:05.674Z,72.77
2023-03-17T20:51:33.860Z,72.21
2023-03-17T20:54:03.487Z,72.92
2023-03-17T20:56:33.697Z,72.33
2023-03-17T20:59:04.802Z,72.01
2023-03-17T21:01:34.781Z,71.02
2023-03-17T21:04:02.712Z,70.85
2023-03-17T21:06:30.201Z,71.04
2023-03-17T21:08:57.754Z,72.27
2023-03-17T21:11:26.685Z,70.91
2023-03-17T21:13:55.394Z,71.22
2023-03-17T21:16:24.948Z,71.63
2023-03-17T21:18:53.127Z,71.57
2023-03-17T21:21:21.606Z,70.76
2023-03-17T21:23:49.608Z,70.56
2023-03-17T21:26:17.178Z,70.53
2023-03-17T21:28:46.073Z,70.46
2023-03-17T21:31:14.821Z,71.37
2023-03-17T21:33:42.801Z,70.59
2023-03-17T21:36:11.067Z,70.69
2023-03-17T21:38:38.802Z,71.87
2023-03-17T21:41:21.156Z,71.47
2023-03-17T21:43:50.394Z,70.76
2023-03-17T21:46:18.210Z,70.93
2023-03-17T21:48:45.702Z,70.79
2023-03-17T21:51:13.638Z,70.46
2023-03-17T21:53:41.122Z,70.72
2023-03-17T21:56:11.937Z,70.73
2023-03-17T21:58:39.867Z,70.83
2023-03-17T22:01:09.010Z,70.22
2023-03-17T22:03:37.239Z,71.28
2023-03-17T22:06:05.413Z,70.87
2023-03-17T22:08:33.182Z,70.71
2023-03-17T22:11:00.654Z,70.35
2023-03-17T22:13:28.140Z,70.70
2023-03-17T22:15:59.333Z,70.48
2023-03-17T22:18:28.156Z,70.88
2023-03-17T22:20:56.248Z,70.77
2023-03-17T22:23:27.675Z,71.36
2023-03-17T22:25:55.140Z,75.35
2023-03-17T22:28:23.132Z,74.58
2023-03-17T22:30:50.840Z,71.69
2023-03-17T22:33:18.403Z,71.50
2023-03-17T22:35:47.948Z,71.70
2023-03-17T22:38:15.431Z,71.34
2023-03-17T22:40:42.908Z,71.43
2023-03-17T22:43:11.052Z,71.31
2023-03-17T22:45:38.543Z,71.10
2023-03-17T22:48:06.301Z,71.66
2023-03-17T22:50:34.269Z,71.27
2023-03-17T22:53:03.242Z,71.14
2023-03-17T22:55:30.730Z,72.25
2023-03-17T22:57:58.158Z,71.59
2023-03-17T23:00:25.857Z,71.41
2023-03-17T23:02:53.357Z,71.24
2023-03-17T23:05:20.945Z,71.37
2023-03-17T23:07:50.804Z,71.55
2023-03-17T23:10:24.358Z,71.52
2023-03-17T23:12:52.747Z,71.47
2023-03-17T23:15:20.983Z,71.65
2023-03-17T23:17:48.663Z,71.65
2023-03-17T23:20:16.824Z,71.69
2023-03-17T23:22:44.310Z,71.76
2023-03-17T23:25:13.668Z,71.80
2023-03-17T23:27:42.590Z,71.96
2023-03-17T23:30:12.764Z,71.61
2023-03-17T23:32:40.589Z,71.98
2023-03-17T23:35:09.291Z,72.15
2023-03-17T23:37:37.264Z,71.99
2023-03-17T23:40:06.194Z,71.55
2023-03-17T23:42:33.766Z,71.60
2023-03-17T23:45:03.056Z,74.78
2023-03-17T23:47:30.891Z,73.74
2023-03-17T23:49:58.418Z,72.57
2023-03-17T23:52:26.168Z,72.46
2023-03-17T23:54:53.911Z,72.27
2023-03-17T23:57:21.679Z,72.12
2023-03-17T23:59:49.199Z,72.40
